Time;durP1;ratioP1;P1;durP2;ratioP2;P2;SDS_P1;SDS_P2;PMS_P1;PMS_P2;Temp;Humidity;BMP_temperature;BMP_pressure;BME280_temperature;BME280_humidity;BME280_pressure;Samples;Min_cycle;Max_cycle;Signal;HPM_P1;HPM_P2
2022/03/21 00:00:44;;;;;;;30.80;14.13;;;2.10;99.90;;;;;;4955324;28;20247;-72
2022/03/21 00:03:13;;;;;;;28.80;13.53;;;2.10;99.90;;;;;;4955507;29;20208;-71
2022/03/21 00:05:40;;;;;;;25.77;13.67;;;2.20;99.90;;;;;;4955361;29;20645;-73
2022/03/21 00:08:11;;;;;;;27.23;13.60;;;2.20;99.90;;;;;;4956291;28;20225;-73
2022/03/21 00:10:39;;;;;;;31.97;14.70;;;2.10;99.90;;;;;;4974526;28;20214;-71
2022/03/21 00:13:06;;;;;;;22.53;12.70;;;2.10;99.90;;;;;;4974342;28;20334;-72
2022/03/21 00:15:35;;;;;;;30.30;14.30;;;2.10;99.90;;;;;;4974839;28;20230;-73
2022/03/21 00:18:03;;;;;;;28.83;13.13;;;2.10;99.90;;;;;;4974137;28;20257;-73
2022/03/21 00:20:33;;;;;;;26.00;13.43;;;2.10;99.90;;;;;;4974491;28;20234;-72
2022/03/21 00:23:01;;;;;;;30.00;14.50;;;2.00;99.90;;;;;;4974430;28;20212;-72
2022/03/21 00:25:30;;;;;;;26.47;13.60;;;1.90;99.90;;;;;;4963095;28;20212;-73
2022/03/21 00:27:58;;;;;;;29.97;14.80;;;2.00;99.90;;;;;;4954547;28;20228;-72
2022/03/21 00:30:25;;;;;;;31.30;15.03;;;2.00;99.90;;;;;;4955397;28;20208;-72
2022/03/21 00:32:52;;;;;;;31.60;14.87;;;2.00;99.90;;;;;;4954951;28;20212;-72
2022/03/21 00:35:18;;;;;;;26.00;13.07;;;2.00;99.90;;;;;;4955361;28;20215;-72
2022/03/21 00:37:46;;;;;;;30.00;14.63;;;2.10;99.90;;;;;;4954387;28;20239;-72
2022/03/21 00:40:15;;;;;;;27.47;13.60;;;2.20;99.90;;;;;;4954760;28;20239;-72
2022/03/21 00:42:45;;;;;;;32.13;14.80;;;2.20;99.90;;;;;;4955072;28;20207;-73
2022/03/21 00:45:14;;;;;;;28.10;13.40;;;2.10;99.90;;;;;;4954457;28;20212;-72
2022/03/21 00:47:41;;;;;;;26.23;12.83;;;2.10;99.90;;;;;;4954840;28;20232;-72
2022/03/21 00:50:10;;;;;;;27.67;13.70;;;2.10;99.90;;;;;;4954734;28;20702;-72
2022/03/21 00:52:41;;;;;;;25.33;13.90;;;2.10;99.90;;;;;;4954790;28;20219;-71
2022/03/21 00:55:09;;;;;;;25.80;13.87;;;2.00;99.90;;;;;;4954848;28;20212;-72
2022/03/21 00:57:35;;;;;;;24.63;13.13;;;2.00;99.90;;;;;;4954288;28;20220;-72
2022/03/21 01:00:06;;;;;;;26.30;13.47;;;2.10;99.90;;;;;;4954545;28;20679;-72
2022/03/21 01:02:32;;;;;;;27.93;13.77;;;2.10;99.90;;;;;;4954528;28;20613;-72
2022/03/21 01:04:59;;;;;;;32.10;13.47;;;2.10;99.90;;;;;;4955007;28;20208;-71
2022/03/21 01:07:26;;;;;;;25.60;13.30;;;2.10;99.90;;;;;;4958667;28;20219;-72
2022/03/21 01:09:53;;;;;;;24.07;12.77;;;2.20;99.90;;;;;;4959126;28;20212;-74
2022/03/21 01:12:20;;;;;;;26.93;13.77;;;2.20;99.90;;;;;;4954841;28;20210;-72
2022/03/21 01:14:46;;;;;;;26.40;13.77;;;2.20;99.90;;;;;;4954685;29;20220;-72
2022/03/21 01:17:14;;;;;;;28.43;13.47;;;2.20;99.90;;;;;;4954438;29;20818;-71
2022/03/21 01:19:41;;;;;;;28.07;14.37;;;2.10;99.90;;;;;;4954287;28;20203;-72
2022/03/21 01:22:08;;;;;;;29.13;14.37;;;2.10;99.90;;;;;;4954178;29;20251;-72
2022/03/21 01:24:37;;;;;;;27.93;13.40;;;2.20;99.90;;;;;;4953975;29;20212;-72
2022/03/21 01:27:05;;;;;;;28.63;13.93;;;2.20;99.90;;;;;;4954010;29;20250;-71
2022/03/21 01:29:33;;;;;;;27.93;14.10;;;2.00;99.90;;;;;;4954175;29;20208;-72
2022/03/21 01:32:00;;;;;;;23.53;12.87;;;2.00;99.90;;;;;;4954211;29;20223;-72
2022/03/21 01:34:28;;;;;;;26.63;13.63;;;2.00;99.90;;;;;;4954514;29;20216;-72
2022/03/21 01:36:55;;;;;;;28.37;13.73;;;2.10;99.90;;;;;;4954499;29;20227;-72
2022/03/21 01:39:22;;;;;;;28.07;13.03;;;2.10;99.90;;;;;;4954333;29;20215;-72
2022/03/21 01:41:49;;;;;;;26.83;13.77;;;2.00;99.90;;;;;;4954254;29;20239;-73
2022/03/21 01:44:17;;;;;;;27.33;13.43;;;2.00;99.90;;;;;;4953849;28;20568;-72
2022/03/21 01:46:45;;;;;;;29.00;15.20;;;2.00;99.90;;;;;;4953992;29;20228;-71
2022/03/21 01:49:13;;;;;;;29.97;13.67;;;2.00;99.90;;;;;;4953801;29;20263;-72
2022/03/21 01:51:42;;;;;;;24.23;13.37;;;2.10;99.90;;;;;;4954067;29;20215;-71
2022/03/21 01:56:54;;;;;;;24.13;13.33;;;2.10;99.90;;;;;;4973185;28;20347;-72
2022/03/21 01:59:22;;;;;;;28.20;13.70;;;2.20;99.90;;;;;;4973241;28;20212;-72
2022/03/21 02:01:50;;;;;;;25.97;13.07;;;2.10;99.90;;;;;;4973232;28;20238;-72
2022/03/21 02:04:17;;;;;;;28.77;13.50;;;2.20;99.90;;;;;;4972541;28;20555;-72
2022/03/21 02:06:46;;;;;;;26.53;12.43;;;2.10;99.90;;;;;;4970807;28;20227;-73
2022/03/21 02:09:13;;;;;;;27.43;12.80;;;2.00;99.90;;;;;;4959436;28;20214;-72
2022/03/21 02:11:40;;;;;;;22.90;12.80;;;2.10;99.90;;;;;;4973324;28;20213;-71
2022/03/21 02:14:09;;;;;;;22.67;11.73;;;2.10;99.90;;;;;;4972350;28;20229;-73
2022/03/21 02:16:37;;;;;;;26.83;12.90;;;2.20;99.90;;;;;;4972727;28;20211;-72
2022/03/21 02:19:09;;;;;;;23.33;12.17;;;2.30;99.90;;;;;;4975556;28;20207;-73
2022/03/21 02:21:48;;;;;;;26.03;13.20;;;2.20;99.90;;;;;;4976526;28;20297;-73
2022/03/21 02:24:26;;;;;;;23.97;12.70;;;1.90;99.90;;;;;;4976247;28;20207;-71
2022/03/21 02:26:56;;;;;;;26.17;13.17;;;1.80;99.90;;;;;;4959018;28;20283;-70
2022/03/21 02:29:25;;;;;;;21.77;11.93;;;1.90;99.90;;;;;;4956676;28;20212;-70
2022/03/21 02:31:53;;;;;;;24.23;12.00;;;1.90;99.90;;;;;;4957119;28;20207;-71
2022/03/21 02:34:23;;;;;;;24.63;13.30;;;1.70;99.90;;;;;;4957356;28;20208;-71
2022/03/21 02:36:53;;;;;;;26.00;12.50;;;1.60;99.90;;;;;;4956959;28;20251;-71
2022/03/21 02:39:20;;;;;;;28.23;13.27;;;1.60;99.90;;;;;;4956995;28;20204;-71
2022/03/21 02:41:47;;;;;;;24.37;13.17;;;1.60;99.90;;;;;;4956940;28;20279;-71
2022/03/21 02:44:15;;;;;;;29.37;14.10;;;1.50;99.90;;;;;;4956670;29;20216;-70
2022/03/21 02:46:42;;;;;;;24.50;13.03;;;1.60;99.90;;;;;;4956117;29;20232;-70
2022/03/21 02:49:09;;;;;;;27.93;13.53;;;1.60;99.90;;;;;;4956612;29;20210;-71
2022/03/21 02:51:40;;;;;;;25.07;12.27;;;1.60;99.90;;;;;;4956593;29;20212;-71
2022/03/21 02:54:07;;;;;;;27.93;14.20;;;1.70;99.90;;;;;;4956964;29;20275;-71
2022/03/21 02:56:34;;;;;;;23.97;13.53;;;1.70;99.90;;;;;;4956379;29;20234;-71
2022/03/21 02:59:01;;;;;;;25.40;12.90;;;1.70;99.90;;;;;;4956877;28;20207;-70
2022/03/21 03:01:29;;;;;;;34.50;13.97;;;1.80;99.90;;;;;;4956631;29;20235;-71
2022/03/21 03:03:56;;;;;;;25.33;12.43;;;1.80;99.90;;;;;;4956282;29;20576;-71
2022/03/21 03:06:22;;;;;;;30.83;12.47;;;1.80;99.90;;;;;;4957042;29;20208;-71
2022/03/21 03:08:49;;;;;;;29.43;13.50;;;1.70;99.90;;;;;;4956669;29;20212;-71
2022/03/21 03:11:16;;;;;;;25.37;13.20;;;1.70;99.90;;;;;;4956427;29;20211;-71
2022/03/21 03:13:43;;;;;;;27.70;13.93;;;1.70;99.90;;;;;;4956581;29;20216;-71
2022/03/21 03:16:10;;;;;;;23.83;12.40;;;1.70;99.90;;;;;;4956530;28;20291;-70
2022/03/21 03:18:38;;;;;;;27.60;13.20;;;1.60;99.90;;;;;;4956224;28;20590;-71
2022/03/21 03:21:05;;;;;;;27.10;12.60;;;1.60;99.90;;;;;;4956535;28;20236;-71
2022/03/21 03:23:33;;;;;;;27.03;12.50;;;1.50;99.90;;;;;;4956285;28;20215;-70
2022/03/21 03:26:02;;;;;;;26.73;13.70;;;1.50;99.90;;;;;;4956396;28;20263;-70
2022/03/21 03:28:31;;;;;;;25.93;13.17;;;1.50;99.90;;;;;;4955884;28;20730;-70
2022/03/21 03:30:59;;;;;;;26.50;12.67;;;1.50;99.90;;;;;;4954955;28;20666;-71
2022/03/21 03:33:27;;;;;;;24.77;12.93;;;1.60;99.90;;;;;;4955492;28;20204;-71
2022/03/21 03:35:56;;;;;;;26.50;12.63;;;1.70;99.90;;;;;;4955551;28;20212;-70
2022/03/21 03:38:23;;;;;;;31.10;13.23;;;1.70;99.90;;;;;;4956047;28;20250;-71
2022/03/21 03:40:50;;;;;;;33.60;13.33;;;1.60;99.90;;;;;;4955925;28;20215;-70
2022/03/21 03:43:16;;;;;;;24.87;12.90;;;1.60;99.90;;;;;;4955692;28;20212;-71
2022/03/21 03:45:44;;;;;;;27.87;14.00;;;1.70;99.90;;;;;;4955211;28;20212;-71
2022/03/21 03:48:11;;;;;;;24.43;12.53;;;1.60;99.90;;;;;;4955719;28;20259;-71
2022/03/21 03:50:38;;;;;;;27.57;13.60;;;1.70;99.90;;;;;;4955727;28;20211;-70
2022/03/21 03:53:06;;;;;;;25.87;12.07;;;1.70;99.90;;;;;;4955454;28;20224;-70
2022/03/21 03:55:33;;;;;;;25.07;12.33;;;1.70;99.90;;;;;;4955898;28;20222;-70
2022/03/21 03:58:00;;;;;;;27.50;13.43;;;1.80;99.90;;;;;;4955202;28;20231;-70
2022/03/21 04:00:27;;;;;;;22.37;12.73;;;1.70;99.90;;;;;;4955669;28;20219;-71
2022/03/21 04:05:37;;;;;;;23.03;12.87;;;1.60;99.90;;;;;;4955485;29;20222;-71
2022/03/21 04:08:07;;;;;;;25.73;12.17;;;1.60;99.90;;;;;;4955763;28;20231;-70
2022/03/21 04:10:33;;;;;;;21.97;12.70;;;1.50;99.90;;;;;;4955228;28;20663;-71
2022/03/21 04:13:00;;;;;;;25.37;12.33;;;1.50;99.90;;;;;;4955033;28;20658;-71
2022/03/21 04:15:27;;;;;;;24.10;11.30;;;1.50;99.90;;;;;;4955115;29;20215;-71
2022/03/21 04:17:59;;;;;;;28.00;13.40;;;1.50;99.90;;;;;;4955644;29;20714;-71
2022/03/21 04:20:26;;;;;;;26.77;13.07;;;1.50;99.90;;;;;;4955592;29;20208;-70
2022/03/21 04:22:53;;;;;;;24.97;11.40;;;1.50;99.90;;;;;;4955029;29;20240;-71
2022/03/21 04:25:21;;;;;;;23.67;12.60;;;1.40;99.90;;;;;;4955085;29;20302;-71
2022/03/21 04:27:48;;;;;;;22.40;12.00;;;1.40;99.90;;;;;;4955228;29;20227;-72
2022/03/21 04:30:15;;;;;;;24.93;12.27;;;1.30;99.90;;;;;;4954887;28;20207;-71
2022/03/21 04:32:43;;;;;;;23.33;11.57;;;1.30;99.90;;;;;;4955141;29;20208;-71
2022/03/21 04:35:10;;;;;;;24.50;12.17;;;1.30;99.90;;;;;;4955638;29;20299;-71
2022/03/21 04:37:37;;;;;;;25.73;12.37;;;1.30;99.90;;;;;;4954952;28;20231;-71
2022/03/21 04:40:06;;;;;;;24.60;11.50;;;1.30;99.90;;;;;;4954851;29;20214;-70
2022/03/21 04:42:34;;;;;;;21.27;11.83;;;1.30;99.90;;;;;;4954876;28;20243;-71
2022/03/21 04:45:01;;;;;;;24.83;12.47;;;1.30;99.90;;;;;;4954615;29;20568;-70
2022/03/21 04:47:28;;;;;;;24.53;11.23;;;1.50;99.90;;;;;;4954595;29;20247;-70
2022/03/21 04:49:55;;;;;;;24.23;11.20;;;1.40;99.90;;;;;;4954277;29;20267;-71
2022/03/21 04:52:22;;;;;;;24.57;11.93;;;1.30;99.90;;;;;;4954247;29;20218;-72
2022/03/21 04:54:49;;;;;;;19.67;10.40;;;1.30;99.90;;;;;;4954537;28;20214;-70
2022/03/21 04:57:16;;;;;;;23.33;11.13;;;1.40;99.90;;;;;;4954401;28;20278;-71
2022/03/21 04:59:44;;;;;;;24.13;10.93;;;1.30;99.90;;;;;;4954835;29;20208;-71
2022/03/21 05:02:11;;;;;;;28.40;11.00;;;1.40;99.90;;;;;;4954049;28;20238;-70
2022/03/21 05:04:38;;;;;;;20.27;9.97;;;1.40;99.90;;;;;;4954301;29;20263;-70
2022/03/21 05:07:06;;;;;;;19.23;10.07;;;1.50;99.90;;;;;;4954377;28;20232;-71
2022/03/21 05:09:32;;;;;;;22.70;11.00;;;1.40;99.90;;;;;;4954259;29;20211;-71
2022/03/21 05:11:59;;;;;;;21.10;11.50;;;1.30;99.90;;;;;;4953996;29;20211;-71
2022/03/21 05:14:26;;;;;;;21.33;10.77;;;1.40;99.90;;;;;;4954096;28;20204;-71
2022/03/21 05:16:54;;;;;;;19.33;10.73;;;1.40;99.90;;;;;;4957380;28;20223;-70
2022/03/21 05:19:21;;;;;;;29.27;10.87;;;1.40;99.90;;;;;;4973345;28;20211;-71
2022/03/21 05:21:48;;;;;;;21.77;10.90;;;1.40;99.90;;;;;;4973675;28;20231;-71
2022/03/21 05:32:29;;;;;;;21.43;10.83;;;1.30;99.90;;;;;;4955453;28;20258;-70
2022/03/21 05:37:40;;;;;;;18.70;9.27;;;1.40;99.90;;;;;;4954188;29;20238;-70
2022/03/21 05:42:52;;;;;;;21.37;10.37;;;1.30;99.90;;;;;;4964840;28;20724;-71
2022/03/21 05:45:20;;;;;;;20.40;10.10;;;1.30;99.90;;;;;;4972741;28;20241;-71
2022/03/21 05:50:35;;;;;;;20.00;10.03;;;1.30;99.90;;;;;;4957792;28;20350;-70
2022/03/21 05:53:02;;;;;;;21.23;9.77;;;1.40;99.90;;;;;;4972962;28;20858;-71
2022/03/21 05:55:30;;;;;;;19.33;9.20;;;1.40;99.90;;;;;;4975403;28;20210;-71
2022/03/21 05:57:57;;;;;;;23.90;10.30;;;1.50;99.90;;;;;;4971331;28;20230;-70
2022/03/21 06:00:24;;;;;;;20.00;9.63;;;1.50;99.90;;;;;;4957765;29;20580;-71
2022/03/21 06:02:54;;;;;;;18.83;9.93;;;1.60;99.90;;;;;;4957508;28;20243;-70
2022/03/21 06:05:22;;;;;;;19.90;8.80;;;1.60;99.90;;;;;;4963577;28;20226;-70
2022/03/21 06:07:50;;;;;;;18.80;9.97;;;1.70;99.90;;;;;;4976041;28;20706;-70
2022/03/21 06:10:17;;;;;;;23.93;11.10;;;1.80;99.90;;;;;;4976548;28;20207;-71
2022/03/21 06:12:44;;;;;;;15.80;9.40;;;2.00;99.90;;;;;;4976641;28;20578;-70
2022/03/21 06:15:11;;;;;;;23.03;11.10;;;2.10;99.90;;;;;;4960990;28;20208;-71
2022/03/21 06:17:39;;;;;;;21.77;9.73;;;2.20;99.90;;;;;;4956985;28;20232;-71
2022/03/21 06:20:09;;;;;;;21.53;9.93;;;2.30;99.90;;;;;;4957502;28;20219;-72
2022/03/21 06:22:36;;;;;;;20.13;10.13;;;2.50;99.90;;;;;;4957548;28;20243;-70
2022/03/21 06:25:04;;;;;;;20.57;10.33;;;2.60;99.90;;;;;;4957330;28;20535;-70
2022/03/21 06:27:31;;;;;;;23.30;10.10;;;3.00;99.90;;;;;;4957136;29;20640;-71
2022/03/21 06:29:58;;;;;;;21.40;9.87;;;3.40;99.90;;;;;;4957391;29;20212;-70
2022/03/21 06:32:25;;;;;;;17.30;8.70;;;3.80;99.90;;;;;;4956746;28;20251;-70
2022/03/21 06:34:52;;;;;;;18.20;8.77;;;4.10;99.90;;;;;;4957019;28;20287;-70
2022/03/21 06:37:21;;;;;;;17.00;8.83;;;4.50;99.90;;;;;;4956857;28;20235;-70
2022/03/21 06:39:48;;;;;;;16.43;8.63;;;5.00;99.90;;;;;;4957492;28;20216;-71
2022/03/21 06:42:15;;;;;;;16.63;8.37;;;5.30;99.90;;;;;;4974609;28;20599;-71
2022/03/21 06:44:42;;;;;;;21.67;8.23;;;5.40;99.90;;;;;;4975514;28;20207;-70
2022/03/21 06:47:10;;;;;;;18.77;8.63;;;5.60;99.90;;;;;;4975310;28;20223;-70
2022/03/21 06:49:37;;;;;;;15.83;7.50;;;5.70;99.90;;;;;;4975912;28;20203;-71
2022/03/21 06:52:06;;;;;;;14.83;7.50;;;6.10;99.90;;;;;;4976078;28;20322;-71
2022/03/21 06:54:35;;;;;;;11.67;6.37;;;6.40;99.90;;;;;;4974687;28;20199;-70
2022/03/21 06:57:02;;;;;;;17.20;7.83;;;6.80;99.90;;;;;;4975900;28;20263;-71
2022/03/21 06:59:29;;;;;;;13.87;6.90;;;7.20;99.90;;;;;;4976131;28;20215;-71
2022/03/21 07:01:56;;;;;;;13.27;6.83;;;7.60;99.90;;;;;;4976021;28;20281;-70
2022/03/21 07:04:24;;;;;;;12.47;6.27;;;7.90;99.90;;;;;;4975566;28;20261;-71
2022/03/21 07:06:51;;;;;;;12.63;6.10;;;8.30;99.90;;;;;;4970028;28;20231;-71
2022/03/21 07:09:18;;;;;;;13.67;6.37;;;8.60;99.90;;;;;;4973432;28;20213;-71
2022/03/21 07:11:46;;;;;;;13.17;6.13;;;9.30;99.90;;;;;;4957162;28;20243;-73
2022/03/21 07:14:13;;;;;;;12.33;6.07;;;9.60;99.90;;;;;;4974995;28;20666;-72
2022/03/21 07:16:40;;;;;;;11.73;6.07;;;9.90;99.90;;;;;;4975734;28;20718;-72
2022/03/21 07:19:07;;;;;;;10.37;6.17;;;10.60;99.90;;;;;;4975877;28;20214;-74
2022/03/21 07:21:34;;;;;;;12.67;6.57;;;10.80;99.90;;;;;;4975439;28;20203;-70
2022/03/21 07:24:01;;;;;;;12.37;7.07;;;11.00;99.90;;;;;;4975571;28;20253;-71
2022/03/21 07:26:28;;;;;;;11.87;6.33;;;11.20;99.90;;;;;;4969144;28;20204;-70
2022/03/21 07:28:56;;;;;;;12.77;6.73;;;11.40;99.90;;;;;;4956619;28;20208;-73
2022/03/21 07:31:23;;;;;;;17.63;7.67;;;11.80;99.90;;;;;;4956219;28;20208;-70
2022/03/21 07:33:50;;;;;;;12.47;6.30;;;12.10;99.90;;;;;;4955787;28;20212;-71
2022/03/21 07:36:17;;;;;;;12.10;6.87;;;12.30;99.90;;;;;;4956355;28;20219;-71
2022/03/21 07:38:44;;;;;;;11.20;5.97;;;12.60;99.90;;;;;;4956083;28;20318;-71
2022/03/21 07:41:11;;;;;;;12.13;6.33;;;12.90;99.90;;;;;;4955779;28;20215;-70
2022/03/21 07:43:38;;;;;;;12.03;5.87;;;13.30;99.90;;;;;;4958826;28;20228;-74
2022/03/21 07:48:51;;;;;;;9.00;5.47;;;13.90;99.50;;;;;;4967050;28;20291;-73
2022/03/21 07:51:18;;;;;;;11.03;6.20;;;14.30;99.00;;;;;;4955781;28;20295;-71
2022/03/21 07:53:45;;;;;;;11.37;5.83;;;14.60;99.10;;;;;;4969564;28;20215;-72
2022/03/21 07:56:12;;;;;;;10.50;5.67;;;14.60;98.00;;;;;;4975152;28;20203;-74
2022/03/21 07:58:39;;;;;;;8.77;5.83;;;14.50;98.50;;;;;;4974695;28;20219;-74
2022/03/21 08:01:07;;;;;;;10.10;5.70;;;14.50;98.30;;;;;;4974702;28;20562;-74
2022/03/21 08:03:34;;;;;;;8.87;5.67;;;14.70;98.00;;;;;;4974574;28;20590;-73
2022/03/21 08:06:02;;;;;;;11.73;5.90;;;14.80;98.00;;;;;;4974597;28;20217;-70
2022/03/21 08:08:29;;;;;;;11.33;6.00;;;14.80;98.20;;;;;;4974911;28;20227;-73
2022/03/21 08:10:57;;;;;;;12.27;6.07;;;15.00;98.40;;;;;;4974243;28;20200;-74
2022/03/21 08:13:25;;;;;;;17.17;6.57;;;15.20;97.80;;;;;;4974743;28;20311;-74
2022/03/21 08:15:52;;;;;;;10.73;6.10;;;14.80;98.30;;;;;;4956205;28;20204;-74
2022/03/21 08:18:20;;;;;;;12.07;6.43;;;14.70;98.60;;;;;;4955291;29;20228;-72
2022/03/21 08:20:47;;;;;;;9.67;5.43;;;15.00;98.50;;;;;;4955549;28;20215;-71
2022/03/21 08:23:15;;;;;;;11.43;5.27;;;14.70;98.00;;;;;;4955482;28;20235;-71
2022/03/21 08:25:43;;;;;;;8.93;5.17;;;14.90;98.60;;;;;;4955136;28;20306;-73
2022/03/21 08:28:11;;;;;;;11.83;5.80;;;15.00;98.20;;;;;;4969971;28;20650;-73
2022/03/21 08:30:39;;;;;;;11.60;5.97;;;15.00;98.00;;;;;;4967163;28;20719;-72
2022/03/21 08:33:08;;;;;;;17.90;8.73;;;14.50;98.10;;;;;;4960201;28;20294;-73
2022/03/21 08:35:38;;;;;;;7.87;4.73;;;14.40;98.60;;;;;;4974709;28;20211;-73
2022/03/21 08:38:07;;;;;;;8.63;4.97;;;14.20;99.20;;;;;;4975161;28;20230;-71
2022/03/21 08:40:35;;;;;;;10.83;5.73;;;14.30;98.90;;;;;;4975236;28;20211;-70
2022/03/21 08:43:01;;;;;;;9.43;5.40;;;14.20;99.60;;;;;;4972409;28;20602;-73
2022/03/21 08:45:28;;;;;;;9.47;5.57;;;14.50;99.10;;;;;;4974328;28;20290;-71
2022/03/21 08:47:55;;;;;;;12.10;5.73;;;14.80;98.60;;;;;;4974643;28;20235;-70
2022/03/21 08:50:22;;;;;;;10.73;5.53;;;15.20;98.30;;;;;;4974354;28;20320;-73
2022/03/21 08:52:50;;;;;;;9.47;5.47;;;15.10;98.30;;;;;;4970048;28;20217;-71
2022/03/21 08:55:17;;;;;;;9.13;5.20;;;15.10;98.60;;;;;;4973988;28;20243;-74
2022/03/21 08:57:44;;;;;;;9.97;4.97;;;15.20;98.70;;;;;;4974082;28;20234;-73
2022/03/21 09:00:13;;;;;;;11.63;4.90;;;15.20;98.50;;;;;;4974330;28;20209;-73
2022/03/21 09:02:41;;;;;;;9.97;4.43;;;14.70;99.50;;;;;;4973732;28;20713;-73
2022/03/21 09:05:12;;;;;;;10.57;4.73;;;14.60;99.60;;;;;;4974448;28;20207;-74
2022/03/21 09:07:39;;;;;;;8.77;4.93;;;14.70;99.80;;;;;;4968690;28;20223;-71
2022/03/21 09:10:11;;;;;;;9.73;4.70;;;14.90;99.50;;;;;;4973537;28;20211;-74
2022/03/21 09:12:37;;;;;;;9.47;5.30;;;15.60;99.20;;;;;;4964392;28;20203;-74
2022/03/21 09:15:05;;;;;;;10.87;5.20;;;15.80;99.10;;;;;;4963536;28;20210;-72
2022/03/21 09:17:32;;;;;;;9.50;4.67;;;15.60;98.80;;;;;;4973203;28;20230;-73
2022/03/21 09:19:59;;;;;;;8.40;5.00;;;15.30;99.00;;;;;;4960297;28;20215;-72
2022/03/21 09:22:25;;;;;;;10.90;4.83;;;15.40;99.30;;;;;;4966147;28;20199;-74
2022/03/21 09:24:52;;;;;;;9.03;5.07;;;15.60;99.30;;;;;;4952950;28;20254;-74
2022/03/21 09:27:22;;;;;;;10.73;5.10;;;15.10;99.30;;;;;;4954691;28;20236;-73
2022/03/21 09:29:49;;;;;;;12.30;6.40;;;14.70;99.90;;;;;;4958213;28;20208;-73
2022/03/21 09:32:17;;;;;;;14.07;6.47;;;14.70;99.90;;;;;;4959164;28;20219;-74
2022/03/21 09:34:44;;;;;;;11.00;6.00;;;14.90;99.90;;;;;;4973576;28;20199;-72
2022/03/21 09:37:12;;;;;;;11.07;5.60;;;14.80;99.90;;;;;;4976792;28;20219;-72
2022/03/21 09:39:39;;;;;;;11.03;5.13;;;14.50;99.90;;;;;;4973801;28;20259;-73
2022/03/21 09:42:06;;;;;;;11.67;6.13;;;14.40;99.90;;;;;;4958321;28;20211;-72
2022/03/21 09:44:35;;;;;;;9.17;5.40;;;14.30;99.90;;;;;;4957863;28;20271;-73
2022/03/21 09:48:08;;;;;;;11.33;5.87;;;14.40;99.90;;;;;;4957948;28;20231;-71
2022/03/21 09:49:53;;;;;;;10.67;5.33;;;14.60;99.90;;;;;;4957658;29;20215;-74
2022/03/21 09:52:22;;;;;;;12.60;5.90;;;14.50;99.90;;;;;;4956556;28;20211;-72
2022/03/21 09:54:51;;;;;;;10.63;5.50;;;14.50;99.90;;;;;;4975740;28;20289;-72
2022/03/21 09:57:18;;;;;;;13.50;5.13;;;14.60;99.90;;;;;;4976718;28;20231;-72
2022/03/21 09:59:46;;;;;;;11.23;5.40;;;14.50;99.90;;;;;;4976626;28;20214;-72
2022/03/21 10:02:18;;;;;;;11.67;5.50;;;14.50;99.90;;;;;;4976448;28;20204;-74
2022/03/21 10:04:45;;;;;;;12.60;5.43;;;14.80;99.90;;;;;;4975818;28;20223;-72
2022/03/21 10:07:12;;;;;;;10.77;5.40;;;14.70;99.90;;;;;;4976932;28;20227;-72
2022/03/21 10:09:39;;;;;;;13.70;5.80;;;14.70;99.90;;;;;;4973711;28;20195;-72
2022/03/21 10:12:10;;;;;;;14.27;5.90;;;14.90;99.90;;;;;;4972986;28;20207;-74
2022/03/21 10:14:38;;;;;;;9.73;4.97;;;15.10;99.90;;;;;;4969816;28;20207;-75
2022/03/21 10:17:08;;;;;;;10.13;5.00;;;15.10;99.90;;;;;;4972748;28;20230;-75
2022/03/21 10:19:45;;;;;;;9.63;4.57;;;15.30;99.90;;;;;;4974707;28;20218;-72
2022/03/21 10:22:13;;;;;;;10.27;4.37;;;15.60;99.90;;;;;;4964734;28;20563;-73
2022/03/21 10:24:42;;;;;;;11.70;4.63;;;15.70;99.90;;;;;;4975359;28;20325;-73
2022/03/21 10:27:30;;;;;;;7.77;4.30;;;15.60;99.90;;;;;;4967227;28;20231;-74
2022/03/21 10:30:01;;;;;;;8.53;3.83;;;15.70;99.90;;;;;;4974780;28;20208;-76
2022/03/21 10:32:35;;;;;;;13.03;5.23;;;15.90;99.90;;;;;;4972736;28;20218;-75
2022/03/21 10:35:04;;;;;;;8.43;4.70;;;16.00;99.90;;;;;;4974964;28;20203;-75
2022/03/21 10:37:42;;;;;;;7.57;4.53;;;15.90;99.90;;;;;;4972252;28;20229;-72
2022/03/21 10:40:27;;;;;;;9.27;4.57;;;15.90;99.90;;;;;;4972374;28;20214;-72
2022/03/21 10:42:57;;;;;;;11.50;4.60;;;15.90;99.90;;;;;;4966540;28;20575;-75
2022/03/21 10:45:25;;;;;;;8.70;3.87;;;16.00;99.90;;;;;;4956451;28;20266;-73
2022/03/21 10:47:54;;;;;;;7.63;3.90;;;16.20;99.90;;;;;;4966776;28;20215;-73
2022/03/21 10:50:31;;;;;;;12.13;4.63;;;16.30;99.90;;;;;;4972842;28;20211;-75
2022/03/21 10:53:09;;;;;;;8.27;4.13;;;16.40;99.90;;;;;;4974431;28;20233;-73
2022/03/21 10:55:37;;;;;;;8.50;4.73;;;16.60;99.90;;;;;;4972505;28;20254;-73
2022/03/21 10:58:04;;;;;;;7.00;3.90;;;16.60;99.90;;;;;;4973125;28;20227;-74
2022/03/21 11:00:31;;;;;;;9.53;4.30;;;16.30;99.90;;;;;;4968333;28;20200;-72
2022/03/21 11:03:05;;;;;;;7.10;4.17;;;16.40;99.90;;;;;;4966551;28;20234;-73
2022/03/21 11:05:34;;;;;;;8.03;4.53;;;16.50;99.90;;;;;;4975614;28;20265;-73
2022/03/21 11:08:01;;;;;;;9.60;4.37;;;16.50;99.90;;;;;;4975179;28;20238;-73
2022/03/21 11:10:29;;;;;;;6.93;3.40;;;16.50;99.90;;;;;;4975070;28;20746;-72
2022/03/21 11:12:57;;;;;;;6.80;3.50;;;16.70;99.90;;;;;;4968380;28;20210;-73
2022/03/21 11:15:25;;;;;;;6.67;4.20;;;16.80;99.90;;;;;;4973992;28;20653;-73
2022/03/21 11:17:53;;;;;;;10.13;3.87;;;16.90;99.90;;;;;;4969133;28;20230;-73
2022/03/21 11:20:21;;;;;;;7.10;3.83;;;16.90;99.80;;;;;;4973722;28;20270;-73
2022/03/21 11:22:48;;;;;;;9.80;3.80;;;17.00;99.90;;;;;;4972755;28;20204;-75
2022/03/21 11:25:16;;;;;;;8.90;4.13;;;17.00;99.90;;;;;;4964950;28;20227;-73
2022/03/21 11:28:01;;;;;;;10.10;3.53;;;17.10;99.90;;;;;;4974533;28;20233;-72
2022/03/21 11:30:38;;;;;;;5.90;3.83;;;17.20;99.90;;;;;;4974861;28;20203;-72
2022/03/21 11:33:13;;;;;;;6.87;3.93;;;17.40;99.90;;;;;;4974433;28;20225;-75
2022/03/21 11:35:51;;;;;;;6.30;3.67;;;17.50;99.90;;;;;;4974724;28;20221;-72
2022/03/21 11:38:23;;;;;;;6.60;4.00;;;17.50;99.00;;;;;;4975139;28;20237;-73
2022/03/21 11:40:50;;;;;;;8.73;4.10;;;17.50;99.30;;;;;;4973636;28;20211;-73
2022/03/21 11:43:29;;;;;;;7.37;4.17;;;17.50;99.90;;;;;;4974132;28;20233;-72
2022/03/21 11:45:58;;;;;;;6.97;3.53;;;17.50;99.60;;;;;;4974564;28;20210;-73
2022/03/21 11:48:38;;;;;;;6.50;3.23;;;17.40;99.30;;;;;;4968423;28;20622;-75
2022/03/21 11:51:36;;;;;;;7.33;3.40;;;17.40;99.50;;;;;;4964618;28;20531;-73
2022/03/21 11:54:06;;;;;;;6.13;3.23;;;17.40;99.60;;;;;;4974443;28;20203;-74
2022/03/21 11:56:53;;;;;;;8.43;3.77;;;17.60;99.30;;;;;;4973459;28;20254;-73
2022/03/21 11:59:55;;;;;;;5.77;3.23;;;17.60;99.00;;;;;;4966103;28;20204;-74
2022/03/21 12:02:57;;;;;;;8.83;3.20;;;17.40;99.20;;;;;;4973757;28;20680;-73
2022/03/21 12:05:54;;;;;;;6.23;3.50;;;17.50;99.10;;;;;;4950691;28;20235;-78
2022/03/21 12:08:50;;;;;;;8.03;3.80;;;17.50;99.10;;;;;;4961514;28;20578;-77
2022/03/21 12:11:50;;;;;;;5.50;3.13;;;17.60;99.20;;;;;;4973038;28;20302;-74
2022/03/21 12:14:40;;;;;;;8.70;3.47;;;17.70;99.00;;;;;;5125719;27;20562;-70
2022/03/21 12:17:36;;;;;;;7.73;3.33;;;17.80;99.00;;;;;;5108708;28;20314;-69
2022/03/21 12:20:10;;;;;;;7.33;4.00;;;18.00;98.90;;;;;;5108745;28;20206;-69
2022/03/21 12:22:43;;;;;;;6.17;3.20;;;18.00;98.60;;;;;;5108570;28;20208;-70
2022/03/21 12:25:13;;;;;;;10.20;4.00;;;18.00;98.60;;;;;;5104225;28;21417;-69
2022/03/21 12:27:41;;;;;;;8.07;3.53;;;17.90;98.40;;;;;;5102589;28;20217;-78
2022/03/21 12:30:38;;;;;;;6.27;3.33;;;18.00;98.70;;;;;;5109081;27;20293;-71
2022/03/21 12:33:27;;;;;;;10.10;4.23;;;18.20;98.50;;;;;;5105783;28;20236;-71
2022/03/21 12:36:04;;;;;;;7.00;3.40;;;18.20;98.70;;;;;;5098542;28;20206;-67
2022/03/21 12:38:34;;;;;;;5.88;2.65;;;18.10;99.10;;;;;;5103122;28;20282;-78
2022/03/21 12:41:03;;;;;;;6.33;3.13;;;18.10;98.70;;;;;;5108360;28;20747;-82
2022/03/21 12:43:32;;;;;;;6.90;3.28;;;18.20;98.90;;;;;;5118277;28;20202;-76
2022/03/21 12:46:12;;;;;;;6.07;3.17;;;18.30;98.80;;;;;;5099788;28;20213;-82
2022/03/21 12:48:41;;;;;;;5.73;2.93;;;18.40;98.50;;;;;;5107347;28;20221;-71
2022/03/21 12:51:09;;;;;;;5.50;2.88;;;18.40;98.20;;;;;;5105519;28;20217;-71
2022/03/21 12:53:39;;;;;;;9.70;2.92;;;18.30;98.30;;;;;;5108199;28;20251;-73
2022/03/21 12:56:08;;;;;;;6.45;3.20;;;18.40;98.30;;;;;;5096330;28;20642;-73
2022/03/21 12:58:35;;;;;;;6.93;3.03;;;18.50;98.70;;;;;;5103954;28;20233;-85
2022/03/21 13:01:03;;;;;;;4.30;3.15;;;18.50;98.20;;;;;;5108025;28;20206;-75
2022/03/21 13:03:31;;;;;;;5.60;2.83;;;18.50;98.20;;;;;;5106851;28;20197;-73
2022/03/21 13:11:45;;;;;;;6.57;2.90;;;19.10;99.90;;;;;;5039160;28;20200;-75
2022/03/21 13:14:14;;;;;;;8.02;3.17;;;19.20;99.00;;;;;;5089166;28;20214;-75
2022/03/21 13:16:49;;;;;;;7.82;3.03;;;18.70;98.70;;;;;;5096567;28;20194;-75
2022/03/21 13:19:20;;;;;;;3.80;2.50;;;18.90;99.90;;;;;;5100515;28;20205;-74
2022/03/21 13:21:48;;;;;;;5.45;2.60;;;18.90;97.80;;;;;;5106833;28;20198;-74